createdAt,value
2018-12-02T00:00:24.090Z,986.98
2018-12-02T00:01:24.031Z,986.92
2018-12-02T00:02:24.023Z,986.89
2018-12-02T00:03:24.008Z,986.91
2018-12-02T00:04:23.996Z,986.88
2018-12-02T00:05:24.021Z,986.93
2018-12-02T00:06:23.973Z,986.93
2018-12-02T00:07:23.965Z,987.02
2018-12-02T00:08:23.964Z,986.91
2018-12-02T00:09:23.947Z,986.86
2018-12-02T00:10:23.952Z,986.87
2018-12-02T00:11:23.937Z,986.85
2018-12-02T00:12:23.910Z,986.79
2018-12-02T00:13:23.899Z,986.89
2018-12-02T00:14:23.888Z,986.82
2018-12-02T00:15:23.913Z,986.83
2018-12-02T00:16:23.869Z,986.79
2018-12-02T00:17:23.862Z,986.77
2018-12-02T00:18:23.847Z,986.73
2018-12-02T00:19:23.837Z,986.67
2018-12-02T00:20:23.825Z,986.71
2018-12-02T00:21:23.830Z,986.72
2018-12-02T00:22:23.807Z,986.68
2018-12-02T00:23:23.800Z,986.68
2018-12-02T00:24:23.787Z,986.60
2018-12-02T00:25:23.782Z,986.61
2018-12-02T00:26:23.802Z,986.58
2018-12-02T00:27:23.757Z,986.53
2018-12-02T00:28:23.741Z,986.48
2018-12-02T00:29:23.746Z,986.47
2018-12-02T00:30:23.724Z,986.49
2018-12-02T00:31:23.766Z,986.50
2018-12-02T00:32:23.703Z,986.41
2018-12-02T00:33:23.687Z,986.42
2018-12-02T00:34:23.676Z,986.36
2018-12-02T00:35:23.668Z,986.31
2018-12-02T00:36:23.674Z,986.29
2018-12-02T00:37:23.658Z,986.30
2018-12-02T00:38:23.634Z,986.34
2018-12-02T00:39:23.626Z,986.40
2018-12-02T00:40:23.612Z,986.39
2018-12-02T00:41:23.617Z,986.36
2018-12-02T00:42:23.594Z,986.35
2018-12-02T00:43:23.581Z,986.40
2018-12-02T00:44:23.571Z,986.49
2018-12-02T00:45:23.560Z,986.52
2018-12-02T00:46:23.563Z,986.42
2018-12-02T00:47:23.540Z,986.45
2018-12-02T00:48:23.538Z,986.43
2018-12-02T00:49:23.523Z,986.48
2018-12-02T00:50:23.507Z,986.40
2018-12-02T00:51:23.511Z,986.45
2018-12-02T00:52:23.486Z,986.43
2018-12-02T00:53:23.475Z,986.36
2018-12-02T00:54:23.471Z,986.31
2018-12-02T00:55:23.457Z,986.30
2018-12-02T00:56:24.201Z,986.27
2018-12-02T00:57:23.433Z,986.31
2018-12-02T00:58:23.422Z,986.20
2018-12-02T00:59:23.414Z,986.28
2018-12-02T01:00:23.405Z,986.26
2018-12-02T01:01:23.411Z,986.23
2018-12-02T01:02:23.380Z,986.21
2018-12-02T01:03:23.372Z,986.17
2018-12-02T01:04:23.361Z,986.25
2018-12-02T01:05:23.351Z,986.15
2018-12-02T01:06:23.356Z,986.19
2018-12-02T01:07:23.334Z,986.20
2018-12-02T01:08:23.320Z,986.30
2018-12-02T01:09:23.308Z,986.24
2018-12-02T01:10:23.302Z,986.20
2018-12-02T01:11:23.300Z,986.19
2018-12-02T01:12:23.274Z,986.20
2018-12-02T01:13:23.267Z,986.12
2018-12-02T01:14:23.254Z,986.15
2018-12-02T01:15:23.250Z,986.15
2018-12-02T01:16:23.246Z,986.10
2018-12-02T01:17:23.222Z,986.13
2018-12-02T01:18:23.213Z,986.13
2018-12-02T01:19:23.201Z,986.05
2018-12-02T01:20:23.190Z,986.00
2018-12-02T01:21:23.312Z,985.94
2018-12-02T01:22:23.169Z,986.01
2018-12-02T01:23:23.158Z,986.01
2018-12-02T01:24:23.149Z,985.99
2018-12-02T01:25:23.136Z,986.05
2018-12-02T01:26:23.129Z,986.02
2018-12-02T01:27:23.137Z,986.01
2018-12-02T01:28:23.107Z,985.98
2018-12-02T01:29:23.097Z,985.97
2018-12-02T01:30:23.083Z,985.94
2018-12-02T01:31:23.075Z,985.94
2018-12-02T01:32:23.076Z,985.92
2018-12-02T01:33:23.056Z,985.90
2018-12-02T01:34:23.040Z,985.92
2018-12-02T01:35:23.031Z,985.89
2018-12-02T01:36:23.020Z,985.94
2018-12-02T01:37:23.022Z,985.99
2018-12-02T01:38:22.999Z,985.94
2018-12-02T01:39:22.999Z,985.91
2018-12-02T01:40:22.978Z,985.93
2018-12-02T01:41:22.967Z,985.91
2018-12-02T01:42:22.970Z,985.91
2018-12-02T01:43:22.949Z,985.87
2018-12-02T01:44:22.935Z,985.98
2018-12-02T01:45:22.932Z,985.91
2018-12-02T01:46:22.916Z,985.98
2018-12-02T01:47:22.917Z,985.97
2018-12-02T01:48:22.893Z,985.95
2018-12-02T01:49:22.886Z,985.96
2018-12-02T01:50:22.874Z,986.01
2018-12-02T01:51:22.870Z,986.06
2018-12-02T01:52:22.869Z,986.11
2018-12-02T01:53:22.841Z,986.08
2018-12-02T01:54:22.833Z,985.97
2018-12-02T01:55:22.820Z,985.96
2018-12-02T01:56:22.809Z,985.95
2018-12-02T01:57:22.813Z,985.92
2018-12-02T01:58:22.789Z,985.88
2018-12-02T01:59:22.786Z,985.98
2018-12-02T02:00:22.797Z,985.90
2018-12-02T02:01:22.762Z,985.89
2018-12-02T02:02:22.758Z,985.95
2018-12-02T02:03:22.737Z,985.88
2018-12-02T02:04:22.727Z,985.95
2018-12-02T02:05:22.718Z,985.92
2018-12-02T02:06:22.708Z,985.88
2018-12-02T02:07:22.705Z,985.95
2018-12-02T02:08:22.680Z,985.87
2018-12-02T02:09:22.683Z,985.87
2018-12-02T02:10:22.660Z,985.84
2018-12-02T02:11:22.653Z,985.85
2018-12-02T02:12:22.652Z,985.87
2018-12-02T02:13:22.631Z,985.82
2018-12-02T02:14:22.627Z,985.80
2018-12-02T02:15:22.607Z,985.73
2018-12-02T02:16:22.597Z,985.79
2018-12-02T02:17:22.599Z,985.57
2018-12-02T02:18:22.574Z,985.68
2018-12-02T02:19:22.566Z,985.65
2018-12-02T02:20:22.565Z,985.49
2018-12-02T02:21:22.544Z,985.55
2018-12-02T02:22:22.546Z,985.44
2018-12-02T02:23:22.526Z,985.55
2018-12-02T02:24:22.512Z,985.48
2018-12-02T02:25:22.501Z,985.38
2018-12-02T02:26:22.501Z,985.42
2018-12-02T02:27:22.509Z,985.38
2018-12-02T02:28:22.470Z,985.34
2018-12-02T02:29:22.458Z,985.35
2018-12-02T02:30:22.448Z,985.39
2018-12-02T02:31:22.438Z,985.32
2018-12-02T02:32:22.436Z,985.28
2018-12-02T02:33:22.431Z,985.30
2018-12-02T02:34:22.407Z,985.28
2018-12-02T02:35:22.400Z,985.25
2018-12-02T02:36:22.387Z,985.21
2018-12-02T02:37:22.377Z,985.21
2018-12-02T02:38:22.385Z,985.09
2018-12-02T02:39:22.353Z,985.12
2018-12-02T02:40:22.345Z,985.11
2018-12-02T02:41:22.333Z,985.12
2018-12-02T02:42:22.349Z,985.09
2018-12-02T02:43:22.311Z,985.05
2018-12-02T02:44:22.306Z,985.08
2018-12-02T02:45:22.298Z,985.06
2018-12-02T02:46:22.280Z,985.05
2018-12-02T02:47:22.269Z,985.07
2018-12-02T02:48:22.274Z,985.05
2018-12-02T02:49:22.247Z,984.99
2018-12-02T02:50:22.247Z,985.03
2018-12-02T02:51:22.228Z,984.97
2018-12-02T02:52:22.218Z,984.91
2018-12-02T02:53:22.222Z,984.92
2018-12-02T02:54:22.195Z,984.90
2018-12-02T02:55:22.187Z,984.91
2018-12-02T02:56:22.175Z,984.94
2018-12-02T02:57:22.169Z,984.92
2018-12-02T02:58:22.166Z,984.84
2018-12-02T02:59:22.146Z,984.81
2018-12-02T03:00:22.135Z,984.74
2018-12-02T03:01:22.131Z,984.76
2018-12-02T03:02:22.110Z,984.82
2018-12-02T03:03:22.126Z,984.77
2018-12-02T03:04:22.088Z,984.76
2018-12-02T03:05:22.078Z,984.76
2018-12-02T03:06:22.068Z,984.76
2018-12-02T03:07:22.058Z,984.78
2018-12-02T03:08:22.059Z,984.68
2018-12-02T03:09:22.045Z,984.65
2018-12-02T03:10:22.029Z,984.75
2018-12-02T03:11:22.019Z,984.72
2018-12-02T03:12:22.004Z,984.71
2018-12-02T03:13:22.009Z,984.69
2018-12-02T03:14:21.982Z,984.64
2018-12-02T03:15:21.973Z,984.59
2018-12-02T03:16:21.961Z,984.65
2018-12-02T03:17:21.956Z,984.72
2018-12-02T03:18:21.960Z,984.64
2018-12-02T03:19:21.932Z,984.58
2018-12-02T03:20:21.924Z,984.55
2018-12-02T03:21:21.908Z,984.45
2018-12-02T03:22:21.897Z,984.45
2018-12-02T03:23:21.900Z,984.48
2018-12-02T03:24:21.878Z,984.42
2018-12-02T03:25:21.865Z,984.40
2018-12-02T03:26:21.855Z,984.31
2018-12-02T03:27:21.843Z,984.27
2018-12-02T03:28:21.846Z,984.26
2018-12-02T03:29:21.827Z,984.19
2018-12-02T03:30:21.819Z,984.19
2018-12-02T03:31:21.809Z,984.20
2018-12-02T03:32:21.790Z,984.15
2018-12-02T03:33:21.796Z,984.16
2018-12-02T03:34:21.769Z,984.14
2018-12-02T03:35:21.760Z,984.02
2018-12-02T03:36:21.751Z,984.06
2018-12-02T03:37:21.738Z,984.00
2018-12-02T03:38:21.742Z,983.98
2018-12-02T03:39:21.717Z,984.01
2018-12-02T03:40:21.706Z,983.88
2018-12-02T03:41:21.696Z,983.88
2018-12-02T03:42:21.694Z,983.87
2018-12-02T03:43:21.690Z,983.85
2018-12-02T03:44:21.666Z,983.83
2018-12-02T03:45:21.654Z,983.86
2018-12-02T03:46:21.643Z,983.87
2018-12-02T03:47:21.631Z,983.89
2018-12-02T03:48:21.639Z,983.86
2018-12-02T03:49:21.617Z,983.91
2018-12-02T03:50:21.605Z,983.89
2018-12-02T03:51:21.593Z,984.02
2018-12-02T03:52:21.582Z,983.99
2018-12-02T03:53:21.754Z,983.92
2018-12-02T03:54:21.559Z,984.00
2018-12-02T03:55:21.548Z,983.96
2018-12-02T03:56:21.540Z,984.02
2018-12-02T03:57:21.533Z,983.97
2018-12-02T03:58:21.516Z,983.98
2018-12-02T03:59:21.524Z,983.99
2018-12-02T04:00:21.501Z,984.06
2018-12-02T04:01:21.485Z,984.06
2018-12-02T04:02:21.475Z,984.06
2018-12-02T04:03:21.472Z,984.10
2018-12-02T04:04:21.471Z,984.12
2018-12-02T04:05:21.456Z,984.08
2018-12-02T04:06:21.435Z,984.14
2018-12-02T04:07:21.421Z,984.17
2018-12-02T04:08:21.489Z,984.15
2018-12-02T04:09:21.418Z,984.20
2018-12-02T04:10:21.389Z,984.17
2018-12-02T04:11:21.379Z,984.22
2018-12-02T04:12:21.368Z,984.20
2018-12-02T04:13:21.358Z,984.19
2018-12-02T04:14:21.363Z,984.22
2018-12-02T04:15:21.364Z,984.26
2018-12-02T04:16:21.329Z,984.24
2018-12-02T04:17:21.315Z,984.31
2018-12-02T04:18:21.304Z,984.33
2018-12-02T04:19:21.313Z,984.27
2018-12-02T04:20:21.283Z,984.28
2018-12-02T04:21:21.281Z,984.32
2018-12-02T04:22:21.267Z,984.32
2018-12-02T04:23:21.256Z,984.36
2018-12-02T04:24:21.261Z,984.35
2018-12-02T04:25:21.236Z,984.34
2018-12-02T04:26:21.227Z,984.36
2018-12-02T04:27:21.230Z,984.35
2018-12-02T04:28:21.216Z,984.35
2018-12-02T04:29:21.216Z,984.36
2018-12-02T04:30:21.179Z,984.34
2018-12-02T04:31:21.180Z,984.49
2018-12-02T04:32:21.174Z,984.40
2018-12-02T04:33:21.150Z,984.32
2018-12-02T04:34:21.153Z,984.29
2018-12-02T04:35:21.132Z,984.37
2018-12-02T04:36:21.115Z,984.37
2018-12-02T04:37:21.103Z,984.36
2018-12-02T04:38:21.105Z,984.26
2018-12-02T04:39:21.101Z,984.26
2018-12-02T04:40:21.070Z,984.22
2018-12-02T04:41:21.060Z,984.22
2018-12-02T04:42:21.050Z,984.36
2018-12-02T04:43:21.049Z,984.28
2018-12-02T04:44:21.044Z,984.27
2018-12-02T04:45:21.017Z,984.24
2018-12-02T04:46:21.007Z,984.24
2018-12-02T04:47:20.996Z,984.31
2018-12-02T04:48:20.990Z,984.29
2018-12-02T04:49:20.994Z,984.25
2018-12-02T04:50:20.965Z,984.24
2018-12-02T04:51:20.955Z,984.25
2018-12-02T04:52:20.945Z,984.24
2018-12-02T04:53:20.932Z,984.23
2018-12-02T04:54:20.940Z,984.19
2018-12-02T04:55:20.913Z,984.16
2018-12-02T04:56:20.901Z,984.07
2018-12-02T04:57:20.893Z,984.10
2018-12-02T04:58:20.879Z,984.14
2018-12-02T04:59:20.889Z,984.15
2018-12-02T05:00:20.860Z,984.11
2018-12-02T05:01:20.858Z,984.13
2018-12-02T05:02:20.837Z,984.13
2018-12-02T05:03:20.826Z,984.15
2018-12-02T05:04:20.838Z,984.10
2018-12-02T05:05:20.804Z,984.13
2018-12-02T05:06:20.795Z,984.12
2018-12-02T05:07:20.795Z,984.12
2018-12-02T05:08:20.774Z,984.09
2018-12-02T05:09:20.770Z,984.13
2018-12-02T05:10:20.766Z,984.08
2018-12-02T05:11:20.741Z,984.07
2018-12-02T05:12:20.730Z,984.10
2018-12-02T05:13:20.733Z,984.10
2018-12-02T05:14:20.709Z,984.09
2018-12-02T05:15:20.727Z,984.06
2018-12-02T05:16:20.688Z,984.04
2018-12-02T05:17:20.677Z,984.08
2018-12-02T05:18:20.666Z,983.97
2018-12-02T05:19:20.656Z,983.96
2018-12-02T05:20:20.664Z,984.00
2018-12-02T05:21:20.637Z,984.00
2018-12-02T05:22:20.622Z,984.00
2018-12-02T05:23:20.614Z,983.96
2018-12-02T05:24:20.605Z,984.00
2018-12-02T05:25:20.605Z,983.98
2018-12-02T05:26:20.585Z,983.91
2018-12-02T05:27:20.578Z,983.85
2018-12-02T05:28:20.560Z,983.83
2018-12-02T05:29:20.552Z,983.92
2018-12-02T05:30:20.556Z,983.89
2018-12-02T05:31:20.528Z,983.85
2018-12-02T05:32:20.517Z,983.81
2018-12-02T05:33:20.510Z,983.77
2018-12-02T05:34:20.496Z,983.79
2018-12-02T05:35:20.500Z,983.85
2018-12-02T05:36:20.473Z,983.84
2018-12-02T05:37:20.463Z,983.86
2018-12-02T05:38:20.452Z,983.85
2018-12-02T05:39:20.445Z,983.88
2018-12-02T05:40:20.450Z,983.89
2018-12-02T05:41:20.424Z,983.83
2018-12-02T05:42:20.417Z,983.87
2018-12-02T05:43:20.398Z,983.85
2018-12-02T05:44:20.389Z,983.88
2018-12-02T05:45:20.396Z,983.85
2018-12-02T05:46:20.369Z,983.81
2018-12-02T05:47:20.358Z,983.85
2018-12-02T05:48:20.354Z,983.77
2018-12-02T05:49:20.345Z,983.79
2018-12-02T05:50:20.340Z,983.81
2018-12-02T05:51:20.313Z,983.78
2018-12-02T05:52:20.302Z,983.72
2018-12-02T05:53:20.291Z,983.73
2018-12-02T05:54:20.283Z,983.69
2018-12-02T05:55:20.300Z,983.69
2018-12-02T05:56:20.260Z,983.61
2018-12-02T05:57:20.249Z,983.68
2018-12-02T05:58:20.239Z,983.62
2018-12-02T05:59:20.229Z,983.63
2018-12-02T06:00:20.233Z,983.55
2018-12-02T06:01:20.216Z,983.63
2018-12-02T06:02:20.197Z,983.56
2018-12-02T06:03:20.186Z,983.57
2018-12-02T06:04:20.175Z,983.53
2018-12-02T06:05:20.178Z,983.56
2018-12-02T06:06:20.153Z,983.49
2018-12-02T06:07:20.195Z,983.44
2018-12-02T06:08:20.132Z,983.40
2018-12-02T06:09:20.123Z,983.36
2018-12-02T06:10:20.135Z,983.37
2018-12-02T06:11:20.101Z,983.36
2018-12-02T06:12:20.089Z,983.37
2018-12-02T06:13:20.090Z,983.40
2018-12-02T06:14:20.071Z,983.36
2018-12-02T06:15:20.072Z,983.38
2018-12-02T06:16:20.046Z,983.35
2018-12-02T06:17:20.037Z,983.34
2018-12-02T06:18:20.026Z,983.31
2018-12-02T06:19:20.019Z,983.37
2018-12-02T06:20:20.039Z,983.32
2018-12-02T06:21:19.994Z,983.39
2018-12-02T06:22:19.985Z,983.37
2018-12-02T06:23:19.972Z,983.31
2018-12-02T06:24:19.961Z,983.27
2018-12-02T06:25:19.961Z,983.23
2018-12-02T06:26:19.958Z,983.15
2018-12-02T06:27:19.936Z,983.21
2018-12-02T06:28:19.920Z,983.23
2018-12-02T06:29:19.910Z,983.18
2018-12-02T06:30:19.958Z,983.19
2018-12-02T06:31:19.916Z,983.17
2018-12-02T06:32:19.876Z,983.25
2018-12-02T06:33:19.866Z,983.26
2018-12-02T06:34:19.854Z,983.19
2018-12-02T06:35:19.844Z,983.19
2018-12-02T06:36:19.852Z,983.19
2018-12-02T06:37:19.834Z,983.07
2018-12-02T06:38:19.811Z,983.09
2018-12-02T06:39:19.809Z,983.16
2018-12-02T06:40:19.790Z,983.12
2018-12-02T06:41:19.801Z,983.09
2018-12-02T06:42:19.769Z,983.05
2018-12-02T06:43:19.761Z,983.16
2018-12-02T06:44:19.748Z,983.16
2018-12-02T06:45:19.736Z,983.20
2018-12-02T06:46:19.744Z,983.18
2018-12-02T06:47:19.727Z,983.14
2018-12-02T06:48:19.706Z,983.22
2018-12-02T06:49:19.697Z,983.20
2018-12-02T06:50:19.684Z,983.24
2018-12-02T06:51:19.689Z,983.22
2018-12-02T06:52:19.663Z,983.19
2018-12-02T06:53:19.651Z,983.16
2018-12-02T06:54:19.640Z,983.14
2018-12-02T06:55:19.635Z,983.21
2018-12-02T06:56:19.633Z,983.15
2018-12-02T06:57:19.608Z,983.14
2018-12-02T06:58:19.597Z,983.14
2018-12-02T06:59:19.587Z,983.15
2018-12-02T07:00:19.629Z,983.19
2018-12-02T07:01:19.610Z,983.20
2018-12-02T07:02:19.556Z,983.19
2018-12-02T07:03:19.551Z,983.19
2018-12-02T07:04:19.540Z,983.19
2018-12-02T07:05:19.529Z,983.14
2018-12-02T07:06:19.512Z,983.16
2018-12-02T07:07:19.518Z,983.18
2018-12-02T07:08:19.492Z,983.12
2018-12-02T07:09:19.482Z,983.15
2018-12-02T07:10:19.471Z,983.17
2018-12-02T07:11:19.467Z,983.19
2018-12-02T07:12:19.463Z,983.13
2018-12-02T07:13:19.448Z,983.17
2018-12-02T07:14:19.426Z,983.18
2018-12-02T07:15:19.417Z,983.09
2018-12-02T07:16:19.406Z,983.10
2018-12-02T07:17:19.433Z,983.11
2018-12-02T07:18:19.388Z,983.09
2018-12-02T07:19:19.374Z,983.05
2018-12-02T07:20:19.363Z,983.02
2018-12-02T07:21:19.354Z,983.02
2018-12-02T07:22:19.341Z,983.03
2018-12-02T07:23:19.353Z,982.97
2018-12-02T07:24:19.321Z,982.90
2018-12-02T07:25:19.311Z,982.91
2018-12-02T07:26:19.303Z,982.93
2018-12-02T07:27:19.296Z,982.89
2018-12-02T07:28:19.293Z,982.91
2018-12-02T07:29:19.274Z,982.88
2018-12-02T07:30:24.890Z,982.78
2018-12-02T07:31:20.246Z,982.79
2018-12-02T07:32:19.239Z,982.82
2018-12-02T07:33:19.255Z,982.73
2018-12-02T07:34:19.216Z,982.82
2018-12-02T07:35:19.213Z,982.78
2018-12-02T07:36:19.193Z,982.73
2018-12-02T07:37:19.186Z,982.83
2018-12-02T07:38:19.172Z,982.76
2018-12-02T07:39:19.176Z,982.72
2018-12-02T07:40:19.152Z,982.65
2018-12-02T07:41:19.143Z,982.66
2018-12-02T07:42:19.132Z,982.67
2018-12-02T07:43:19.131Z,982.61
2018-12-02T07:44:19.123Z,982.58
2018-12-02T07:45:19.097Z,982.59
2018-12-02T07:46:19.087Z,982.61
2018-12-02T07:47:19.077Z,982.54
2018-12-02T07:48:19.065Z,982.51
2018-12-02T07:49:19.075Z,982.66
2018-12-02T07:50:19.052Z,982.60
2018-12-02T07:51:19.032Z,982.50
2018-12-02T07:52:19.026Z,982.58
2018-12-02T07:53:19.011Z,982.60
2018-12-02T07:54:19.016Z,982.64
2018-12-02T07:55:18.991Z,982.66
2018-12-02T07:56:18.981Z,982.76
2018-12-02T07:57:18.978Z,982.67
2018-12-02T07:58:18.963Z,982.68
2018-12-02T07:59:19.005Z,982.74
2018-12-02T08:00:18.948Z,982.79
2018-12-02T08:01:18.944Z,982.73
2018-12-02T08:02:18.934Z,982.80
2018-12-02T08:03:18.912Z,982.77
2018-12-02T08:04:18.900Z,982.74
2018-12-02T08:05:18.901Z,982.63
2018-12-02T08:06:18.875Z,982.62
2018-12-02T08:07:18.869Z,982.82
2018-12-02T08:08:18.873Z,982.69
2018-12-02T08:09:18.846Z,982.60
2018-12-02T08:10:18.844Z,982.72
2018-12-02T08:11:18.822Z,982.80
2018-12-02T08:12:18.820Z,982.79
2018-12-02T08:13:18.797Z,982.80
2018-12-02T08:14:18.789Z,982.77
2018-12-02T08:15:18.793Z,982.82
2018-12-02T08:16:18.768Z,982.76
2018-12-02T08:17:18.757Z,982.87
2018-12-02T08:18:18.745Z,982.98
2018-12-02T08:19:18.732Z,983.12
2018-12-02T08:20:18.737Z,983.28
2018-12-02T08:21:18.710Z,983.34
2018-12-02T08:22:18.700Z,983.44
2018-12-02T08:23:18.695Z,983.35
2018-12-02T08:24:18.685Z,983.29
2018-12-02T08:25:18.711Z,983.48
2018-12-02T08:26:18.670Z,983.33
2018-12-02T08:27:18.654Z,983.32
2018-12-02T08:28:18.659Z,983.09
2018-12-02T08:29:18.630Z,983.20
2018-12-02T08:30:18.628Z,983.19
2018-12-02T08:31:18.604Z,983.17
2018-12-02T08:32:18.596Z,983.23
2018-12-02T08:33:18.598Z,983.29
2018-12-02T08:34:18.570Z,983.20
2018-12-02T08:35:18.573Z,983.17
2018-12-02T08:36:18.569Z,983.23
2018-12-02T08:37:18.545Z,983.22
2018-12-02T08:38:18.550Z,983.19
2018-12-02T08:39:18.535Z,983.20
2018-12-02T08:40:18.528Z,983.20
2018-12-02T08:41:18.510Z,983.11
2018-12-02T08:42:18.484Z,983.12
2018-12-02T08:43:18.472Z,983.07
2018-12-02T08:44:18.467Z,982.97
2018-12-02T08:45:18.484Z,983.04
2018-12-02T08:46:18.456Z,982.94
2018-12-02T08:47:18.444Z,983.05
2018-12-02T08:48:18.420Z,983.01
2018-12-02T08:49:18.411Z,982.99
2018-12-02T08:50:18.396Z,983.00
2018-12-02T08:51:18.403Z,983.05
2018-12-02T08:52:18.384Z,983.03
2018-12-02T08:53:18.364Z,983.04
2018-12-02T08:54:18.355Z,983.05
2018-12-02T08:55:18.355Z,982.96
2018-12-02T08:56:18.347Z,982.92
2018-12-02T08:57:18.321Z,982.89
2018-12-02T08:58:18.312Z,982.96
2018-12-02T08:59:18.303Z,982.97
2018-12-02T09:00:18.298Z,982.98
2018-12-02T09:01:18.305Z,982.94
2018-12-02T09:02:18.273Z,983.00
2018-12-02T09:03:18.258Z,982.96
2018-12-02T09:04:18.247Z,983.08
2018-12-02T09:05:18.236Z,983.12
2018-12-02T09:06:18.238Z,983.22
2018-12-02T09:07:18.231Z,983.19
2018-12-02T09:08:18.205Z,983.14
2018-12-02T09:09:18.196Z,983.25
2018-12-02T09:10:18.181Z,983.25
2018-12-02T09:11:18.185Z,983.26
2018-12-02T09:12:18.162Z,983.32
2018-12-02T09:13:18.150Z,983.25
2018-12-02T09:14:18.139Z,983.33
2018-12-02T09:15:18.133Z,983.41
2018-12-02T09:16:18.132Z,983.38
2018-12-02T09:17:18.109Z,983.33
2018-12-02T09:18:18.096Z,983.40
2018-12-02T09:19:18.085Z,983.32
2018-12-02T09:20:18.075Z,983.26
2018-12-02T09:21:18.093Z,983.30
2018-12-02T09:22:18.057Z,983.35
2018-12-02T09:23:18.051Z,983.39
2018-12-02T09:24:18.041Z,983.36
2018-12-02T09:25:18.022Z,983.42
2018-12-02T09:26:18.009Z,983.35
2018-12-02T09:27:18.013Z,983.44
2018-12-02T09:28:17.989Z,983.45
2018-12-02T09:29:17.978Z,983.39
2018-12-02T09:30:17.967Z,983.50
2018-12-02T09:31:18.072Z,983.50
2018-12-02T09:32:17.963Z,983.56
2018-12-02T09:33:17.941Z,983.49
2018-12-02T09:34:17.930Z,983.50
2018-12-02T09:35:17.915Z,983.48
2018-12-02T09:36:17.902Z,983.61
2018-12-02T09:37:17.904Z,983.60
2018-12-02T09:38:17.883Z,983.61
2018-12-02T09:39:18.457Z,983.57
2018-12-02T09:40:17.869Z,983.71
2018-12-02T09:41:17.866Z,983.79
2018-12-02T09:42:17.854Z,983.78
2018-12-02T09:43:17.834Z,983.87
2018-12-02T09:44:17.819Z,983.84
2018-12-02T09:45:17.836Z,983.88
2018-12-02T09:46:17.810Z,983.83
2018-12-02T09:47:17.814Z,983.94
2018-12-02T09:48:17.802Z,983.92
2018-12-02T09:49:17.777Z,983.91
2018-12-02T09:50:17.753Z,983.99
2018-12-02T09:51:17.746Z,984.02
2018-12-02T09:52:17.758Z,984.05
2018-12-02T09:53:17.723Z,984.00
2018-12-02T09:54:23.230Z,984.06
2018-12-02T09:55:18.702Z,984.05
2018-12-02T09:56:17.695Z,983.97
2018-12-02T09:57:17.692Z,984.05
2018-12-02T09:58:17.670Z,983.95
2018-12-02T09:59:17.658Z,983.92
2018-12-02T10:00:17.648Z,983.98
2018-12-02T10:01:17.644Z,983.98
2018-12-02T10:02:17.648Z,983.86
2018-12-02T10:03:17.617Z,983.95
2018-12-02T10:04:17.603Z,983.99
2018-12-02T10:05:17.600Z,984.00
2018-12-02T10:06:17.582Z,984.05
2018-12-02T10:07:17.595Z,983.90
2018-12-02T10:08:17.560Z,983.90
2018-12-02T10:09:17.550Z,983.96
2018-12-02T10:10:22.486Z,983.93
2018-12-02T10:11:18.538Z,983.97
2018-12-02T10:12:17.537Z,983.91
2018-12-02T10:13:17.510Z,983.92
2018-12-02T10:14:17.509Z,983.83
2018-12-02T10:15:17.488Z,983.85
2018-12-02T10:16:17.480Z,983.84
2018-12-02T10:17:17.486Z,983.80
2018-12-02T10:18:17.456Z,983.78
2018-12-02T10:19:17.448Z,983.82
2018-12-02T10:20:17.434Z,983.84
2018-12-02T10:21:17.427Z,983.77
2018-12-02T10:22:17.427Z,983.81
2018-12-02T10:23:17.409Z,983.74
2018-12-02T10:24:17.390Z,983.75
2018-12-02T10:25:17.385Z,983.72
2018-12-02T10:26:17.370Z,983.71
2018-12-02T10:27:17.371Z,983.72
2018-12-02T10:28:17.350Z,983.71
2018-12-02T10:29:17.362Z,983.74
2018-12-02T10:30:17.331Z,983.75
2018-12-02T10:31:17.321Z,983.74
2018-12-02T10:32:17.322Z,983.72
2018-12-02T10:33:17.317Z,983.66
2018-12-02T10:34:17.303Z,983.67
2018-12-02T10:35:17.292Z,983.67
2018-12-02T10:36:17.275Z,983.48
2018-12-02T10:37:17.289Z,983.70
2018-12-02T10:38:17.259Z,983.62
2018-12-02T10:39:17.251Z,983.67
2018-12-02T10:40:17.231Z,983.63
2018-12-02T10:41:17.227Z,983.59
2018-12-02T10:42:17.216Z,983.60
2018-12-02T10:43:17.198Z,983.60
2018-12-02T10:44:17.190Z,983.57
2018-12-02T10:45:17.181Z,983.59
2018-12-02T10:46:17.159Z,983.54
2018-12-02T10:47:17.169Z,983.62
2018-12-02T10:48:17.134Z,983.58
2018-12-02T10:49:17.128Z,983.61
2018-12-02T10:50:17.112Z,983.56
2018-12-02T10:51:17.112Z,983.56
2018-12-02T10:52:17.122Z,983.54
2018-12-02T10:53:17.101Z,983.56
2018-12-02T10:54:17.076Z,983.56
2018-12-02T10:55:17.070Z,983.52
2018-12-02T10:56:17.070Z,983.55
2018-12-02T10:57:17.056Z,983.46
2018-12-02T10:58:17.028Z,983.46
2018-12-02T10:59:17.024Z,983.41
2018-12-02T11:00:17.023Z,983.45
2018-12-02T11:01:17.023Z,983.45
2018-12-02T11:02:16.997Z,983.39
2018-12-02T11:03:16.969Z,983.31
2018-12-02T11:04:16.964Z,983.45
2018-12-02T11:05:16.950Z,983.41
2018-12-02T11:06:16.944Z,983.41
2018-12-02T11:07:16.948Z,983.39
2018-12-02T11:08:16.925Z,983.36
2018-12-02T11:09:16.904Z,983.39
2018-12-02T11:10:16.893Z,983.51
2018-12-02T11:11:16.890Z,983.45
2018-12-02T11:12:16.899Z,983.47
2018-12-02T11:13:16.892Z,983.53
2018-12-02T11:14:16.859Z,983.52
2018-12-02T11:15:16.847Z,983.54
2018-12-02T11:16:16.831Z,983.44
2018-12-02T11:17:16.847Z,983.46
2018-12-02T11:18:16.814Z,983.43
2018-12-02T11:19:16.795Z,983.44
2018-12-02T11:20:16.791Z,983.41
2018-12-02T11:21:16.777Z,983.32
2018-12-02T11:22:16.770Z,983.46
2018-12-02T11:23:16.766Z,983.51
2018-12-02T11:24:16.742Z,983.52
2018-12-02T11:25:16.740Z,983.40
2018-12-02T11:26:16.721Z,983.40
2018-12-02T11:27:16.709Z,983.38
2018-12-02T11:28:16.715Z,983.33
2018-12-02T11:29:16.690Z,983.33
2018-12-02T11:30:16.682Z,983.35
2018-12-02T11:31:16.668Z,983.36
2018-12-02T11:32:16.660Z,983.30
2018-12-02T11:33:16.664Z,983.41
2018-12-02T11:34:16.637Z,983.38
2018-12-02T11:35:16.624Z,983.34
2018-12-02T11:36:16.613Z,983.33
2018-12-02T11:37:16.602Z,983.31
2018-12-02T11:38:16.605Z,983.21
2018-12-02T11:39:16.579Z,983.12
2018-12-02T11:40:16.577Z,983.08
2018-12-02T11:41:17.368Z,983.20
2018-12-02T11:42:16.547Z,983.17
2018-12-02T11:43:16.550Z,983.19
2018-12-02T11:44:16.525Z,983.20
2018-12-02T11:45:16.517Z,983.14
2018-12-02T11:46:16.516Z,983.13
2018-12-02T11:47:16.499Z,983.22
2018-12-02T11:48:16.495Z,983.10
2018-12-02T11:49:16.492Z,983.15
2018-12-02T11:50:16.461Z,983.09
2018-12-02T11:51:16.452Z,983.05
2018-12-02T11:52:16.442Z,983.06
2018-12-02T11:53:16.441Z,983.06
2018-12-02T11:54:16.417Z,983.12
2018-12-02T11:55:16.419Z,983.13
2018-12-02T11:56:16.404Z,983.10
2018-12-02T11:57:16.390Z,983.12
2018-12-02T11:58:16.400Z,983.14
2018-12-02T11:59:16.362Z,983.08
2018-12-02T12:00:16.358Z,983.14
2018-12-02T12:01:16.341Z,983.06
2018-12-02T12:02:16.337Z,982.93
2018-12-02T12:03:16.338Z,982.88
2018-12-02T12:04:16.313Z,982.85
2018-12-02T12:05:16.299Z,982.91
2018-12-02T12:06:16.287Z,982.84
2018-12-02T12:07:16.279Z,982.85
2018-12-02T12:08:16.281Z,982.78
2018-12-02T12:09:16.254Z,982.90
2018-12-02T12:10:16.247Z,982.80
2018-12-02T12:11:16.232Z,982.87
2018-12-02T12:12:16.221Z,982.82
2018-12-02T12:13:16.234Z,982.87
2018-12-02T12:14:16.200Z,982.90
2018-12-02T12:15:16.189Z,983.02
2018-12-02T12:16:16.178Z,983.09
2018-12-02T12:17:16.170Z,983.08
2018-12-02T12:18:16.172Z,983.06
2018-12-02T12:19:16.147Z,983.09
2018-12-02T12:20:16.145Z,983.17
2018-12-02T12:21:16.127Z,983.19
2018-12-02T12:22:16.152Z,983.05
2018-12-02T12:23:16.142Z,983.20
2018-12-02T12:24:16.098Z,983.25
2018-12-02T12:25:16.080Z,983.27
2018-12-02T12:26:16.073Z,983.34
2018-12-02T12:27:16.058Z,983.34
2018-12-02T12:28:16.070Z,983.37